»·PEaware :: N210AR KSMX-KBFL

N210AR :: KSMX-KBFL

FLIGHT INFORMATION

Flight Status: Arrived
Operator: Privately registered:
United States
More flights under this callsign
Pilot: Max S. (16657)
Aircraft: CESSNA 172 SKYHAWK
(C172)
More flights by this aircraft type
Origin: KSMX Santa Maria Pub/Capt Hancock
United States
Destination: KBFL Meadows
United States
More flights between these airports :: More routes between these airports
Route: KSMX FLW KBFL
File this flight plan on PilotEdge
Remarks:
Altitude:
(Current/Filed)
5,500ft
Speed:
(Current/Filed)
100kts
Departed: 08-Oct-17 09:29 AM
Arrived: 08-Oct-17 10:30 AM
Distance/Time
Traveled:
76nm/1:01
Distance/Time
To Go:
Arrived

Flight Plot

Page will automatically refresh every two minutes.


Map Options




Map Legend


Flown Route
Filed Route
Departure Airport
Arrival Airport
Navaid (VOR, NDB)
Fix

Horizontal Profiles

Position Reports

Time Latitude Longitude Heading Altitude Ground
Speed
08-Oct-17 09:13 34.900329 -120.451216 151 265ft 0kts
08-Oct-17 09:14 34.900329 -120.451216 151 265ft 0kts
08-Oct-17 09:15 34.900329 -120.451216 151 265ft 0kts
08-Oct-17 09:16 34.900329 -120.451216 151 265ft 0kts
08-Oct-17 09:17 34.900328 -120.451216 151 265ft 0kts
08-Oct-17 09:18 34.900328 -120.451216 151 265ft 0kts
08-Oct-17 09:19 34.900328 -120.451216 151 265ft 0kts
08-Oct-17 09:20 34.900328 -120.451216 151 265ft 0kts
08-Oct-17 09:21 34.900328 -120.451216 151 265ft 0kts
08-Oct-17 09:22 34.900328 -120.451216 151 265ft 0kts
08-Oct-17 09:23 34.900328 -120.451216 151 265ft 0kts
08-Oct-17 09:24 34.900124 -120.451158 167 265ft 5kts
08-Oct-17 09:25 34.898916 -120.450616 136 265ft 16kts
08-Oct-17 09:26 34.894774 -120.445649 136 265ft 37kts
08-Oct-17 09:27 34.893015 -120.444740 188 265ft 0kts
08-Oct-17 09:28 34.893015 -120.444740 189 265ft 0kts
08-Oct-17 09:29 34.893015 -120.444740 189 265ft 0kts
08-Oct-17 09:30 34.893015 -120.444740 189 265ft 0kts
08-Oct-17 09:31 34.893015 -120.444740 189 265ft 0kts
08-Oct-17 09:32 34.892914 -120.445912 315 265ft 19kts
08-Oct-17 09:33 34.900427 -120.454360 316 567ft 70kts
08-Oct-17 09:34 34.913746 -120.469407 315 1325ft 67kts
08-Oct-17 09:36 34.922568 -120.480101 309 1767ft 72kts
08-Oct-17 09:37 34.930836 -120.480034 52 2099ft 72kts
08-Oct-17 09:38 34.933676 -120.471062 83 2424ft 66kts
08-Oct-17 09:39 34.936146 -120.456481 90 2884ft 68kts
08-Oct-17 09:40 34.938167 -120.437445 81 3450ft 72kts
08-Oct-17 09:41 34.940627 -120.429492 70 3721ft 70kts
08-Oct-17 09:41 34.943046 -120.423457 77 3917ft 68kts
08-Oct-17 09:43 34.945899 -120.413583 74 4189ft 71kts
08-Oct-17 09:44 34.949290 -120.405408 66 4436ft 72kts
08-Oct-17 09:45 34.952265 -120.396207 78 4679ft 73kts
08-Oct-17 09:45 34.954109 -120.387715 90 4913ft 68kts
08-Oct-17 09:47 34.954478 -120.376070 106 5220ft 66kts
08-Oct-17 09:47 34.954920 -120.367126 56 5397ft 80kts
08-Oct-17 09:48 34.958648 -120.354927 78 5535ft 97kts
08-Oct-17 09:49 34.962409 -120.339983 75 5524ft 119kts
08-Oct-17 09:50 34.966774 -120.323559 75 5510ft 125kts
08-Oct-17 09:51 34.971385 -120.306589 75 5503ft 123kts
08-Oct-17 09:52 34.975969 -120.289857 74 5503ft 121kts
08-Oct-17 09:53 34.980497 -120.273407 74 5504ft 121kts
08-Oct-17 09:54 34.985039 -120.256926 74 5505ft 121kts
08-Oct-17 09:55 34.989559 -120.240532 74 5505ft 122kts
08-Oct-17 09:56 34.994053 -120.224184 74 5505ft 122kts
08-Oct-17 09:57 34.998614 -120.207584 73 5505ft 123kts
08-Oct-17 09:58 35.003332 -120.190449 73 5504ft 123kts
08-Oct-17 09:59 35.008142 -120.172983 72 5504ft 123kts
08-Oct-17 10:00 35.013105 -120.154965 72 5504ft 123kts
08-Oct-17 10:01 35.018370 -120.135841 71 5504ft 123kts
08-Oct-17 10:02 35.024171 -120.114774 71 5526ft 121kts
08-Oct-17 10:03 35.030122 -120.093145 70 5541ft 122kts
08-Oct-17 10:04 35.036281 -120.070751 70 5541ft 122kts
08-Oct-17 10:05 35.042732 -120.047253 69 5540ft 122kts
08-Oct-17 10:06 35.048702 -120.025511 69 5540ft 121kts
08-Oct-17 10:07 35.054411 -120.004683 69 5540ft 121kts
08-Oct-17 10:08 35.060073 -119.984036 69 5540ft 121kts
08-Oct-17 10:09 35.065979 -119.962508 69 5540ft 121kts
08-Oct-17 10:10 35.072127 -119.940034 69 5540ft 121kts
08-Oct-17 10:11 35.078418 -119.917009 69 5540ft 121kts
08-Oct-17 10:12 35.085479 -119.891150 69 5541ft 121kts
08-Oct-17 10:13 35.093365 -119.864204 58 5541ft 121kts
08-Oct-17 10:19 35.310490 -118.907414 315 2596ft 82kts
08-Oct-17 10:20 35.321858 -118.923249 297 2991ft 92kts
08-Oct-17 10:21 35.321158 -118.938574 240 3271ft 97kts
08-Oct-17 10:22 35.313514 -118.953230 234 3945ft 57kts
08-Oct-17 10:23 35.310174 -118.965618 253 4356ft 56kts
08-Oct-17 10:24 35.310293 -118.976527 301 4679ft 54kts
08-Oct-17 10:25 35.324120 -118.983625 328 4677ft 72kts
08-Oct-17 10:26 35.333189 -118.994685 278 4584ft 77kts
08-Oct-17 10:27 35.336221 -119.010980 291 4524ft 76kts
08-Oct-17 10:28 35.346505 -119.021720 343 4014ft 115kts
08-Oct-17 10:29 35.366195 -119.022282 5 3148ft 118kts
08-Oct-17 10:30 35.386489 -119.022703 359 2095ft 128kts
08-Oct-17 10:31 35.407996 -119.028493 340 963ft 121kts
08-Oct-17 10:32 35.421482 -119.041481 314 697ft 76kts
08-Oct-17 10:33 35.430994 -119.053121 316 582ft 69kts
08-Oct-17 10:34 35.438231 -119.059940 51 510ft 12kts
08-Oct-17 10:35 35.438260 -119.059874 78 510ft 0kts
08-Oct-17 10:36 35.438260 -119.059874 78 510ft 0kts
08-Oct-17 10:37 35.437404 -119.058115 108 510ft 18kts
08-Oct-17 10:38 35.436374 -119.055221 164 510ft 15kts
08-Oct-17 10:39 35.433865 -119.053988 137 510ft 20kts
08-Oct-17 10:40 35.431064 -119.050565 134 510ft 14kts
08-Oct-17 10:41 35.431522 -119.048108 42 510ft 11kts
08-Oct-17 10:42 35.431383 -119.047975 229 510ft 3kts
08-Oct-17 10:43 35.431370 -119.047994 227 510ft 0kts
08-Oct-17 10:44 35.431370 -119.047994 227 510ft 0kts

Navigation Log

Ident Type
1. KSMX Airport
2. FLW Navaid
3. KBFL Airport